sensor_id;sensor_type;location;lat;lon;timestamp;temperature;humidity
75091;DHT22;63674;48.048;8.306;2024-03-29T00:01:27;-1.50;99.90
75091;DHT22;63674;48.048;8.306;2024-03-29T00:06:20;-0.10;99.90
75091;DHT22;63674;48.048;8.306;2024-03-29T00:08:46;-0.10;99.90
75091;DHT22;63674;48.048;8.306;2024-03-29T00:16:06;-0.30;99.90
75091;DHT22;63674;48.048;8.306;2024-03-29T00:18:32;-0.20;99.90
75091;DHT22;63674;48.048;8.306;2024-03-29T00:20:59;0.90;99.90
75091;DHT22;63674;48.048;8.306;2024-03-29T00:23:25;-0.40;99.90
75091;DHT22;63674;48.048;8.306;2024-03-29T00:28:17;-0.10;99.90
75091;DHT22;63674;48.048;8.306;2024-03-29T00:30:44;-2.30;99.90
75091;DHT22;63674;48.048;8.306;2024-03-29T00:35:37;-0.50;99.90
75091;DHT22;63674;48.048;8.306;2024-03-29T00:38:03;0.00;99.90
75091;DHT22;63674;48.048;8.306;2024-03-29T00:40:29;-0.50;99.90
75091;DHT22;63674;48.048;8.306;2024-03-29T00:42:55;0.00;99.90
75091;DHT22;63674;48.048;8.306;2024-03-29T00:45:21;-2.00;99.90
75091;DHT22;63674;48.048;8.306;2024-03-29T00:55:07;-0.30;99.90
75091;DHT22;63674;48.048;8.306;2024-03-29T00:57:33;0.10;99.90
75091;DHT22;63674;48.048;8.306;2024-03-29T01:00:00;-0.40;99.90
75091;DHT22;63674;48.048;8.306;2024-03-29T01:04:53;-0.30;99.90
75091;DHT22;63674;48.048;8.306;2024-03-29T01:07:19;0.20;99.90
75091;DHT22;63674;48.048;8.306;2024-03-29T01:14:38;1.10;99.90
75091;DHT22;63674;48.048;8.306;2024-03-29T01:19:32;0.30;99.90
75091;DHT22;63674;48.048;8.306;2024-03-29T01:24:25;0.50;99.90
75091;DHT22;63674;48.048;8.306;2024-03-29T01:29:17;0.20;99.90
75091;DHT22;63674;48.048;8.306;2024-03-29T01:34:10;-0.10;99.90
75091;DHT22;63674;48.048;8.306;2024-03-29T01:41:29;0.70;99.90
75091;DHT22;63674;48.048;8.306;2024-03-29T01:43:56;0.50;99.90
75091;DHT22;63674;48.048;8.306;2024-03-29T01:46:23;0.80;99.90
75091;DHT22;63674;48.048;8.306;2024-03-29T01:48:53;0.70;99.90
75091;DHT22;63674;48.048;8.306;2024-03-29T01:51:23;0.60;99.90
75091;DHT22;63674;48.048;8.306;2024-03-29T01:53:51;0.60;99.90
75091;DHT22;63674;48.048;8.306;2024-03-29T01:56:21;0.90;99.90
75091;DHT22;63674;48.048;8.306;2024-03-29T01:58:50;1.90;99.90
75091;DHT22;63674;48.048;8.306;2024-03-29T02:01:19;0.80;99.90
75091;DHT22;63674;48.048;8.306;2024-03-29T02:03:47;1.40;99.90
75091;DHT22;63674;48.048;8.306;2024-03-29T02:06:13;0.90;99.90
75091;DHT22;63674;48.048;8.306;2024-03-29T02:08:40;0.40;99.90
75091;DHT22;63674;48.048;8.306;2024-03-29T02:11:06;0.60;99.90
75091;DHT22;63674;48.048;8.306;2024-03-29T02:13:32;0.40;99.90
75091;DHT22;63674;48.048;8.306;2024-03-29T02:18:26;0.50;99.90
75091;DHT22;63674;48.048;8.306;2024-03-29T02:23:20;0.50;99.90
75091;DHT22;63674;48.048;8.306;2024-03-29T02:25:52;0.70;99.90
75091;DHT22;63674;48.048;8.306;2024-03-29T02:28:19;0.90;99.90
75091;DHT22;63674;48.048;8.306;2024-03-29T02:30:46;0.10;99.90
75091;DHT22;63674;48.048;8.306;2024-03-29T02:33:12;1.10;99.90
75091;DHT22;63674;48.048;8.306;2024-03-29T02:42:58;0.70;99.90
75091;DHT22;63674;48.048;8.306;2024-03-29T02:45:24;-1.00;99.90
75091;DHT22;63674;48.048;8.306;2024-03-29T02:47:50;1.20;99.90
75091;DHT22;63674;48.048;8.306;2024-03-29T02:50:16;-0.70;99.90
75091;DHT22;63674;48.048;8.306;2024-03-29T02:55:09;1.30;99.90
75091;DHT22;63674;48.048;8.306;2024-03-29T02:57:56;1.30;99.90
75091;DHT22;63674;48.048;8.306;2024-03-29T03:00:41;1.10;99.90
75091;DHT22;63674;48.048;8.306;2024-03-29T03:03:26;1.60;99.90
75091;DHT22;63674;48.048;8.306;2024-03-29T03:08:56;1.60;99.90
75091;DHT22;63674;48.048;8.306;2024-03-29T03:11:59;1.80;99.90
75091;DHT22;63674;48.048;8.306;2024-03-29T03:14:44;1.70;99.90
75091;DHT22;63674;48.048;8.306;2024-03-29T03:20:15;1.40;99.90
75091;DHT22;63674;48.048;8.306;2024-03-29T03:23:00;1.80;99.90
75091;DHT22;63674;48.048;8.306;2024-03-29T03:25:55;1.70;99.90
75091;DHT22;63674;48.048;8.306;2024-03-29T03:28:40;1.70;99.90
75091;DHT22;63674;48.048;8.306;2024-03-29T03:31:25;1.80;99.90
75091;DHT22;63674;48.048;8.306;2024-03-29T03:33:51;2.30;99.90
75091;DHT22;63674;48.048;8.306;2024-03-29T03:36:17;2.00;99.90
75091;DHT22;63674;48.048;8.306;2024-03-29T03:38:43;2.40;99.90
75091;DHT22;63674;48.048;8.306;2024-03-29T03:41:09;1.50;99.90
75091;DHT22;63674;48.048;8.306;2024-03-29T03:43:35;2.70;99.90
75091;DHT22;63674;48.048;8.306;2024-03-29T03:50:56;2.00;99.90
75091;DHT22;63674;48.048;8.306;2024-03-29T03:58:15;0.50;99.90
75091;DHT22;63674;48.048;8.306;2024-03-29T04:00:41;2.10;99.90
75091;DHT22;63674;48.048;8.306;2024-03-29T04:03:07;2.50;99.90
75091;DHT22;63674;48.048;8.306;2024-03-29T04:05:36;0.80;99.90
75091;DHT22;63674;48.048;8.306;2024-03-29T04:08:04;2.20;99.90
75091;DHT22;63674;48.048;8.306;2024-03-29T04:12:57;2.10;99.90
75091;DHT22;63674;48.048;8.306;2024-03-29T04:15:23;2.30;99.90
75091;DHT22;63674;48.048;8.306;2024-03-29T04:25:11;2.20;99.90
75091;DHT22;63674;48.048;8.306;2024-03-29T04:27:37;2.40;99.90
75091;DHT22;63674;48.048;8.306;2024-03-29T04:30:04;2.30;99.90
75091;DHT22;63674;48.048;8.306;2024-03-29T04:34:57;1.10;99.90
75091;DHT22;63674;48.048;8.306;2024-03-29T04:37:23;2.60;99.90
75091;DHT22;63674;48.048;8.306;2024-03-29T04:39:49;3.50;99.90
75091;DHT22;63674;48.048;8.306;2024-03-29T04:42:15;2.90;99.90
75091;DHT22;63674;48.048;8.306;2024-03-29T04:44:41;2.70;99.90
75091;DHT22;63674;48.048;8.306;2024-03-29T04:47:07;2.30;99.90
75091;DHT22;63674;48.048;8.306;2024-03-29T04:52:06;2.30;99.90
75091;DHT22;63674;48.048;8.306;2024-03-29T04:54:33;3.40;99.90
75091;DHT22;63674;48.048;8.306;2024-03-29T04:57:00;2.00;99.90
75091;DHT22;63674;48.048;8.306;2024-03-29T04:59:33;2.30;99.90
75091;DHT22;63674;48.048;8.306;2024-03-29T05:01:59;2.40;99.90
75091;DHT22;63674;48.048;8.306;2024-03-29T05:04:26;3.00;99.90
75091;DHT22;63674;48.048;8.306;2024-03-29T05:06:56;2.40;99.90
75091;DHT22;63674;48.048;8.306;2024-03-29T05:09:24;1.20;99.90
75091;DHT22;63674;48.048;8.306;2024-03-29T05:11:51;2.50;99.90
75091;DHT22;63674;48.048;8.306;2024-03-29T05:14:19;3.40;99.90
75091;DHT22;63674;48.048;8.306;2024-03-29T05:19:15;4.80;99.90
75091;DHT22;63674;48.048;8.306;2024-03-29T05:21:42;4.40;99.90
75091;DHT22;63674;48.048;8.306;2024-03-29T05:24:08;4.20;99.90
75091;DHT22;63674;48.048;8.306;2024-03-29T05:26:34;4.70;99.90
75091;DHT22;63674;48.048;8.306;2024-03-29T05:31:29;4.60;99.90
75091;DHT22;63674;48.048;8.306;2024-03-29T05:33:55;5.00;99.90
75091;DHT22;63674;48.048;8.306;2024-03-29T05:36:21;5.30;99.90
75091;DHT22;63674;48.048;8.306;2024-03-29T05:41:15;6.30;94.30
75091;DHT22;63674;48.048;8.306;2024-03-29T05:46:07;5.90;99.90
75091;DHT22;63674;48.048;8.306;2024-03-29T05:48:34;6.00;96.30
75091;DHT22;63674;48.048;8.306;2024-03-29T05:51:00;6.40;98.60
75091;DHT22;63674;48.048;8.306;2024-03-29T05:53:26;6.10;99.90
75091;DHT22;63674;48.048;8.306;2024-03-29T05:55:52;6.70;99.90
75091;DHT22;63674;48.048;8.306;2024-03-29T05:58:18;6.40;99.80
75091;DHT22;63674;48.048;8.306;2024-03-29T06:00:46;6.80;99.40
75091;DHT22;63674;48.048;8.306;2024-03-29T06:05:42;6.60;99.90
75091;DHT22;63674;48.048;8.306;2024-03-29T06:13:01;6.10;99.90
75091;DHT22;63674;48.048;8.306;2024-03-29T06:15:36;6.00;99.90
75091;DHT22;63674;48.048;8.306;2024-03-29T06:20:47;5.80;99.90
75091;DHT22;63674;48.048;8.306;2024-03-29T06:23:15;6.30;99.90
75091;DHT22;63674;48.048;8.306;2024-03-29T06:25:41;5.50;99.90
75091;DHT22;63674;48.048;8.306;2024-03-29T06:28:07;5.60;99.90
75091;DHT22;63674;48.048;8.306;2024-03-29T06:37:56;4.90;99.90
75091;DHT22;63674;48.048;8.306;2024-03-29T06:40:23;5.10;99.90
75091;DHT22;63674;48.048;8.306;2024-03-29T06:42:49;5.40;99.90
75091;DHT22;63674;48.048;8.306;2024-03-29T06:45:15;5.60;99.90
75091;DHT22;63674;48.048;8.306;2024-03-29T06:47:41;5.80;99.90
75091;DHT22;63674;48.048;8.306;2024-03-29T06:50:08;6.20;99.90
75091;DHT22;63674;48.048;8.306;2024-03-29T06:52:34;6.30;99.90
75091;DHT22;63674;48.048;8.306;2024-03-29T06:55:00;6.50;99.90
75091;DHT22;63674;48.048;8.306;2024-03-29T06:57:26;7.40;99.90
75091;DHT22;63674;48.048;8.306;2024-03-29T06:59:57;6.70;99.90
75091;DHT22;63674;48.048;8.306;2024-03-29T07:04:51;6.80;99.90
75091;DHT22;63674;48.048;8.306;2024-03-29T07:09:43;6.90;99.90
75091;DHT22;63674;48.048;8.306;2024-03-29T07:17:03;6.90;99.90
75091;DHT22;63674;48.048;8.306;2024-03-29T07:19:29;6.60;99.90
75091;DHT22;63674;48.048;8.306;2024-03-29T07:21:55;6.90;99.90
75091;DHT22;63674;48.048;8.306;2024-03-29T07:24:21;6.40;99.90
75091;DHT22;63674;48.048;8.306;2024-03-29T07:26:47;6.80;99.90
75091;DHT22;63674;48.048;8.306;2024-03-29T07:29:14;6.70;99.90
75091;DHT22;63674;48.048;8.306;2024-03-29T07:31:40;6.50;99.90
75091;DHT22;63674;48.048;8.306;2024-03-29T07:34:06;5.50;99.90
75091;DHT22;63674;48.048;8.306;2024-03-29T07:36:32;6.00;99.90
75091;DHT22;63674;48.048;8.306;2024-03-29T07:39:02;6.30;99.90
75091;DHT22;63674;48.048;8.306;2024-03-29T07:41:29;6.40;99.90
75091;DHT22;63674;48.048;8.306;2024-03-29T07:43:57;6.40;99.90
75091;DHT22;63674;48.048;8.306;2024-03-29T07:46:33;6.40;99.90
75091;DHT22;63674;48.048;8.306;2024-03-29T07:49:01;6.80;99.90
75091;DHT22;63674;48.048;8.306;2024-03-29T07:51:28;7.10;99.90
75091;DHT22;63674;48.048;8.306;2024-03-29T07:53:54;6.90;99.90
75091;DHT22;63674;48.048;8.306;2024-03-29T07:56:20;6.50;99.90
75091;DHT22;63674;48.048;8.306;2024-03-29T07:58:54;5.80;99.90
75091;DHT22;63674;48.048;8.306;2024-03-29T08:01:21;6.50;99.90
75091;DHT22;63674;48.048;8.306;2024-03-29T08:03:50;6.30;99.90
75091;DHT22;63674;48.048;8.306;2024-03-29T08:06:21;6.60;99.90
75091;DHT22;63674;48.048;8.306;2024-03-29T08:08:49;6.60;99.90
75091;DHT22;63674;48.048;8.306;2024-03-29T08:13:43;6.60;99.90
75091;DHT22;63674;48.048;8.306;2024-03-29T08:16:09;6.80;99.90
75091;DHT22;63674;48.048;8.306;2024-03-29T08:18:36;6.70;99.90
75091;DHT22;63674;48.048;8.306;2024-03-29T08:25:58;6.90;99.90
75091;DHT22;63674;48.048;8.306;2024-03-29T08:28:24;7.00;99.90
75091;DHT22;63674;48.048;8.306;2024-03-29T08:31:00;6.60;99.90
75091;DHT22;63674;48.048;8.306;2024-03-29T08:33:28;7.10;99.90
75091;DHT22;63674;48.048;8.306;2024-03-29T08:35:56;7.20;99.90
75091;DHT22;63674;48.048;8.306;2024-03-29T08:38:23;7.40;99.90
75091;DHT22;63674;48.048;8.306;2024-03-29T08:40:49;7.40;99.90
75091;DHT22;63674;48.048;8.306;2024-03-29T08:43:15;7.40;99.90
75091;DHT22;63674;48.048;8.306;2024-03-29T08:45:45;7.60;99.90
75091;DHT22;63674;48.048;8.306;2024-03-29T08:53:05;8.00;99.90
75091;DHT22;63674;48.048;8.306;2024-03-29T08:57:59;8.10;99.90
75091;DHT22;63674;48.048;8.306;2024-03-29T09:00:26;8.40;99.90
75091;DHT22;63674;48.048;8.306;2024-03-29T09:02:53;8.40;99.90
75091;DHT22;63674;48.048;8.306;2024-03-29T09:05:20;8.70;99.90
75091;DHT22;63674;48.048;8.306;2024-03-29T09:10:15;8.80;99.90
75091;DHT22;63674;48.048;8.306;2024-03-29T09:15:08;9.40;99.90
75091;DHT22;63674;48.048;8.306;2024-03-29T09:17:48;9.30;99.90
75091;DHT22;63674;48.048;8.306;2024-03-29T09:22:40;9.50;99.90
75091;DHT22;63674;48.048;8.306;2024-03-29T09:27:39;9.60;99.90
75091;DHT22;63674;48.048;8.306;2024-03-29T09:30:10;9.60;99.90
75091;DHT22;63674;48.048;8.306;2024-03-29T09:32:37;9.90;99.90
75091;DHT22;63674;48.048;8.306;2024-03-29T09:35:03;9.50;99.90
75091;DHT22;63674;48.048;8.306;2024-03-29T09:37:29;9.80;99.90
75091;DHT22;63674;48.048;8.306;2024-03-29T09:39:55;9.40;99.90
75091;DHT22;63674;48.048;8.306;2024-03-29T09:42:22;10.00;99.90
75091;DHT22;63674;48.048;8.306;2024-03-29T09:44:51;10.20;99.90
75091;DHT22;63674;48.048;8.306;2024-03-29T09:47:20;10.30;99.90
75091;DHT22;63674;48.048;8.306;2024-03-29T09:49:47;10.10;99.90
75091;DHT22;63674;48.048;8.306;2024-03-29T09:52:16;10.60;99.90
75091;DHT22;63674;48.048;8.306;2024-03-29T09:54:42;10.80;99.90
75091;DHT22;63674;48.048;8.306;2024-03-29T09:57:10;10.80;99.90
75091;DHT22;63674;48.048;8.306;2024-03-29T09:59:38;10.90;99.90
75091;DHT22;63674;48.048;8.306;2024-03-29T10:02:17;11.20;99.90
75091;DHT22;63674;48.048;8.306;2024-03-29T10:04:46;11.20;99.90
75091;DHT22;63674;48.048;8.306;2024-03-29T10:07:15;11.30;99.90
75091;DHT22;63674;48.048;8.306;2024-03-29T10:09:42;11.30;99.90
75091;DHT22;63674;48.048;8.306;2024-03-29T10:12:09;11.60;99.90
75091;DHT22;63674;48.048;8.306;2024-03-29T10:14:46;11.60;99.90
75091;DHT22;63674;48.048;8.306;2024-03-29T10:17:20;11.60;99.90
75091;DHT22;63674;48.048;8.306;2024-03-29T10:19:47;11.80;99.90
75091;DHT22;63674;48.048;8.306;2024-03-29T10:22:13;11.90;99.90
75091;DHT22;63674;48.048;8.306;2024-03-29T10:24:39;11.90;99.90
75091;DHT22;63674;48.048;8.306;2024-03-29T10:27:05;11.90;99.90
75091;DHT22;63674;48.048;8.306;2024-03-29T10:29:32;11.80;99.90
75091;DHT22;63674;48.048;8.306;2024-03-29T10:31:58;12.00;99.90
75091;DHT22;63674;48.048;8.306;2024-03-29T10:34:24;12.10;99.90
75091;DHT22;63674;48.048;8.306;2024-03-29T10:36:51;12.30;99.90
75091;DHT22;63674;48.048;8.306;2024-03-29T10:39:17;12.40;99.90
75091;DHT22;63674;48.048;8.306;2024-03-29T10:41:46;12.50;99.90
75091;DHT22;63674;48.048;8.306;2024-03-29T10:44:13;12.50;99.90
75091;DHT22;63674;48.048;8.306;2024-03-29T10:46:42;12.70;99.90
75091;DHT22;63674;48.048;8.306;2024-03-29T10:51:41;12.50;99.90
75091;DHT22;63674;48.048;8.306;2024-03-29T10:54:11;12.60;99.90
75091;DHT22;63674;48.048;8.306;2024-03-29T10:56:38;12.60;99.90
75091;DHT22;63674;48.048;8.306;2024-03-29T10:59:34;12.70;99.90
75091;DHT22;63674;48.048;8.306;2024-03-29T11:02:11;12.80;99.90
75091;DHT22;63674;48.048;8.306;2024-03-29T11:04:39;12.90;99.90
75091;DHT22;63674;48.048;8.306;2024-03-29T11:07:13;12.90;97.30
75091;DHT22;63674;48.048;8.306;2024-03-29T11:09:42;13.00;99.90
75091;DHT22;63674;48.048;8.306;2024-03-29T11:12:11;13.10;95.70
75091;DHT22;63674;48.048;8.306;2024-03-29T11:14:45;13.30;99.70
75091;DHT22;63674;48.048;8.306;2024-03-29T11:17:16;13.50;96.60
75091;DHT22;63674;48.048;8.306;2024-03-29T11:19:42;13.70;98.90
75091;DHT22;63674;48.048;8.306;2024-03-29T11:22:09;13.90;99.90
75091;DHT22;63674;48.048;8.306;2024-03-29T11:24:38;14.30;96.50
75091;DHT22;63674;48.048;8.306;2024-03-29T11:27:09;14.50;94.70
75091;DHT22;63674;48.048;8.306;2024-03-29T11:29:41;14.80;93.30
75091;DHT22;63674;48.048;8.306;2024-03-29T11:32:09;14.90;86.00
75091;DHT22;63674;48.048;8.306;2024-03-29T11:34:35;14.90;81.40
75091;DHT22;63674;48.048;8.306;2024-03-29T11:37:09;14.90;70.30
75091;DHT22;63674;48.048;8.306;2024-03-29T11:39:35;14.80;72.40
75091;DHT22;63674;48.048;8.306;2024-03-29T11:42:02;14.70;75.60
75091;DHT22;63674;48.048;8.306;2024-03-29T11:46:58;14.60;69.90
75091;DHT22;63674;48.048;8.306;2024-03-29T11:49:25;14.50;63.00
75091;DHT22;63674;48.048;8.306;2024-03-29T11:52:04;14.40;70.00
75091;DHT22;63674;48.048;8.306;2024-03-29T11:54:38;14.40;61.50
75091;DHT22;63674;48.048;8.306;2024-03-29T11:57:05;14.60;75.70
75091;DHT22;63674;48.048;8.306;2024-03-29T11:59:31;14.90;75.30
75091;DHT22;63674;48.048;8.306;2024-03-29T12:04:24;15.60;73.50
75091;DHT22;63674;48.048;8.306;2024-03-29T12:06:50;15.70;66.60
75091;DHT22;63674;48.048;8.306;2024-03-29T12:11:47;15.90;62.00
75091;DHT22;63674;48.048;8.306;2024-03-29T12:14:16;15.90;56.40
75091;DHT22;63674;48.048;8.306;2024-03-29T12:16:45;16.00;58.20
75091;DHT22;63674;48.048;8.306;2024-03-29T12:19:24;16.00;54.70
75091;DHT22;63674;48.048;8.306;2024-03-29T12:21:51;16.20;62.60
75091;DHT22;63674;48.048;8.306;2024-03-29T12:24:17;16.30;47.20
75091;DHT22;63674;48.048;8.306;2024-03-29T12:26:43;16.30;44.80
75091;DHT22;63674;48.048;8.306;2024-03-29T12:29:09;16.50;48.10
75091;DHT22;63674;48.048;8.306;2024-03-29T12:31:36;16.50;47.10
75091;DHT22;63674;48.048;8.306;2024-03-29T12:34:04;16.60;51.70
75091;DHT22;63674;48.048;8.306;2024-03-29T12:36:31;16.80;56.80
75091;DHT22;63674;48.048;8.306;2024-03-29T12:41:32;16.80;48.30
75091;DHT22;63674;48.048;8.306;2024-03-29T12:43:58;16.70;51.40
75091;DHT22;63674;48.048;8.306;2024-03-29T12:46:25;16.80;46.50
75091;DHT22;63674;48.048;8.306;2024-03-29T12:48:59;16.80;45.20
75091;DHT22;63674;48.048;8.306;2024-03-29T12:51:27;16.90;48.20
75091;DHT22;63674;48.048;8.306;2024-03-29T12:53:55;16.90;46.60
75091;DHT22;63674;48.048;8.306;2024-03-29T12:58:52;17.10;46.00
75091;DHT22;63674;48.048;8.306;2024-03-29T13:01:18;17.00;47.80
75091;DHT22;63674;48.048;8.306;2024-03-29T13:03:44;16.90;43.60
75091;DHT22;63674;48.048;8.306;2024-03-29T13:06:11;16.90;46.40
75091;DHT22;63674;48.048;8.306;2024-03-29T13:08:37;17.00;45.10
75091;DHT22;63674;48.048;8.306;2024-03-29T13:11:03;17.30;43.10
75091;DHT22;63674;48.048;8.306;2024-03-29T13:18:22;17.10;41.40
75091;DHT22;63674;48.048;8.306;2024-03-29T13:20:48;17.10;45.80
75091;DHT22;63674;48.048;8.306;2024-03-29T13:23:14;17.00;40.60
75091;DHT22;63674;48.048;8.306;2024-03-29T13:25:42;16.90;42.00
75091;DHT22;63674;48.048;8.306;2024-03-29T13:28:08;17.10;42.90
75091;DHT22;63674;48.048;8.306;2024-03-29T13:30:36;17.30;40.30
75091;DHT22;63674;48.048;8.306;2024-03-29T13:35:37;17.20;43.70
75091;DHT22;63674;48.048;8.306;2024-03-29T13:38:03;17.30;41.00
75091;DHT22;63674;48.048;8.306;2024-03-29T13:40:30;17.40;43.60
75091;DHT22;63674;48.048;8.306;2024-03-29T13:42:58;17.50;46.50
75091;DHT22;63674;48.048;8.306;2024-03-29T13:45:24;17.60;39.20
75091;DHT22;63674;48.048;8.306;2024-03-29T13:50:19;17.60;42.40
75091;DHT22;63674;48.048;8.306;2024-03-29T13:52:46;17.30;38.90
75091;DHT22;63674;48.048;8.306;2024-03-29T13:55:12;17.20;42.20
75091;DHT22;63674;48.048;8.306;2024-03-29T13:57:38;17.30;48.80
75091;DHT22;63674;48.048;8.306;2024-03-29T14:02:33;17.40;38.60
75091;DHT22;63674;48.048;8.306;2024-03-29T14:05:00;17.40;43.10
75091;DHT22;63674;48.048;8.306;2024-03-29T14:07:26;17.40;40.10
75091;DHT22;63674;48.048;8.306;2024-03-29T14:09:53;17.30;42.60
75091;DHT22;63674;48.048;8.306;2024-03-29T14:12:20;17.20;40.00
75091;DHT22;63674;48.048;8.306;2024-03-29T14:14:48;17.10;36.20
75091;DHT22;63674;48.048;8.306;2024-03-29T14:17:17;17.00;37.30
75091;DHT22;63674;48.048;8.306;2024-03-29T14:19:43;16.90;40.40
75091;DHT22;63674;48.048;8.306;2024-03-29T14:22:10;16.90;42.40
75091;DHT22;63674;48.048;8.306;2024-03-29T14:24:38;17.00;44.40
75091;DHT22;63674;48.048;8.306;2024-03-29T14:27:06;16.90;39.00
75091;DHT22;63674;48.048;8.306;2024-03-29T14:29:33;16.90;43.00
75091;DHT22;63674;48.048;8.306;2024-03-29T14:31:59;17.10;38.10
75091;DHT22;63674;48.048;8.306;2024-03-29T14:34:27;17.20;37.80
75091;DHT22;63674;48.048;8.306;2024-03-29T14:36:53;17.30;36.90
75091;DHT22;63674;48.048;8.306;2024-03-29T14:39:20;17.50;35.50
75091;DHT22;63674;48.048;8.306;2024-03-29T14:41:50;17.30;35.90
75091;DHT22;63674;48.048;8.306;2024-03-29T14:44:17;17.30;35.30
75091;DHT22;63674;48.048;8.306;2024-03-29T14:46:47;17.20;36.80
75091;DHT22;63674;48.048;8.306;2024-03-29T14:51:40;16.90;36.40
75091;DHT22;63674;48.048;8.306;2024-03-29T14:54:07;16.90;37.10
75091;DHT22;63674;48.048;8.306;2024-03-29T14:56:33;16.90;37.90
75091;DHT22;63674;48.048;8.306;2024-03-29T14:59:01;17.00;38.10
75091;DHT22;63674;48.048;8.306;2024-03-29T15:01:32;16.90;36.10
75091;DHT22;63674;48.048;8.306;2024-03-29T15:03:58;16.90;35.10
75091;DHT22;63674;48.048;8.306;2024-03-29T15:06:25;16.90;33.10
75091;DHT22;63674;48.048;8.306;2024-03-29T15:08:55;17.00;34.20
75091;DHT22;63674;48.048;8.306;2024-03-29T15:11:25;16.90;40.10
75091;DHT22;63674;48.048;8.306;2024-03-29T15:13:52;16.90;42.30
75091;DHT22;63674;48.048;8.306;2024-03-29T15:16:19;16.80;37.50
75091;DHT22;63674;48.048;8.306;2024-03-29T15:18:46;16.80;40.80
75091;DHT22;63674;48.048;8.306;2024-03-29T15:21:13;16.70;39.10
75091;DHT22;63674;48.048;8.306;2024-03-29T15:23:39;16.70;38.00
75091;DHT22;63674;48.048;8.306;2024-03-29T15:26:05;16.70;44.30
75091;DHT22;63674;48.048;8.306;2024-03-29T15:28:31;16.60;46.80
75091;DHT22;63674;48.048;8.306;2024-03-29T15:31:18;16.30;55.50
75091;DHT22;63674;48.048;8.306;2024-03-29T15:33:52;16.20;69.20
75091;DHT22;63674;48.048;8.306;2024-03-29T15:36:19;16.10;69.80
75091;DHT22;63674;48.048;8.306;2024-03-29T15:38:48;15.80;86.50
75091;DHT22;63674;48.048;8.306;2024-03-29T15:41:17;15.80;91.40
75091;DHT22;63674;48.048;8.306;2024-03-29T15:43:43;15.60;74.70
75091;DHT22;63674;48.048;8.306;2024-03-29T15:46:09;15.60;68.30
75091;DHT22;63674;48.048;8.306;2024-03-29T15:48:37;15.40;55.00
75091;DHT22;63674;48.048;8.306;2024-03-29T15:51:06;15.50;57.80
75091;DHT22;63674;48.048;8.306;2024-03-29T15:53:36;15.40;72.00
75091;DHT22;63674;48.048;8.306;2024-03-29T15:56:04;15.10;76.40
75091;DHT22;63674;48.048;8.306;2024-03-29T15:58:31;15.00;91.70
75091;DHT22;63674;48.048;8.306;2024-03-29T16:00:57;14.80;94.80
75091;DHT22;63674;48.048;8.306;2024-03-29T16:03:23;14.80;95.60
75091;DHT22;63674;48.048;8.306;2024-03-29T16:05:49;14.50;80.70
75091;DHT22;63674;48.048;8.306;2024-03-29T16:08:16;14.40;92.70
75091;DHT22;63674;48.048;8.306;2024-03-29T16:11:00;14.20;95.80
75091;DHT22;63674;48.048;8.306;2024-03-29T16:13:30;13.90;98.20
75091;DHT22;63674;48.048;8.306;2024-03-29T16:16:01;13.90;96.10
75091;DHT22;63674;48.048;8.306;2024-03-29T16:18:29;13.80;99.90
75091;DHT22;63674;48.048;8.306;2024-03-29T16:20:58;13.70;99.90
75091;DHT22;63674;48.048;8.306;2024-03-29T16:23:25;13.60;99.90
75091;DHT22;63674;48.048;8.306;2024-03-29T16:25:52;13.50;99.90
75091;DHT22;63674;48.048;8.306;2024-03-29T16:28:22;13.40;99.90
75091;DHT22;63674;48.048;8.306;2024-03-29T16:30:49;13.30;99.90
75091;DHT22;63674;48.048;8.306;2024-03-29T16:33:16;13.20;99.90
75091;DHT22;63674;48.048;8.306;2024-03-29T16:35:43;13.00;99.90
75091;DHT22;63674;48.048;8.306;2024-03-29T16:38:10;13.00;99.90
75091;DHT22;63674;48.048;8.306;2024-03-29T16:43:05;12.80;99.90
75091;DHT22;63674;48.048;8.306;2024-03-29T16:45:32;12.80;99.90
75091;DHT22;63674;48.048;8.306;2024-03-29T16:47:59;12.70;99.90
75091;DHT22;63674;48.048;8.306;2024-03-29T16:50:25;12.60;99.90
75091;DHT22;63674;48.048;8.306;2024-03-29T16:52:51;12.50;99.90
75091;DHT22;63674;48.048;8.306;2024-03-29T16:55:17;12.50;99.90
75091;DHT22;63674;48.048;8.306;2024-03-29T16:57:43;12.40;99.90
75091;DHT22;63674;48.048;8.306;2024-03-29T17:00:10;12.20;99.90
75091;DHT22;63674;48.048;8.306;2024-03-29T17:02:39;12.10;99.90
75091;DHT22;63674;48.048;8.306;2024-03-29T17:05:06;12.00;99.90
75091;DHT22;63674;48.048;8.306;2024-03-29T17:07:35;12.00;99.90
75091;DHT22;63674;48.048;8.306;2024-03-29T17:10:02;12.00;99.90
75091;DHT22;63674;48.048;8.306;2024-03-29T17:12:30;11.90;99.90
75091;DHT22;63674;48.048;8.306;2024-03-29T17:14:57;11.70;99.90
75091;DHT22;63674;48.048;8.306;2024-03-29T17:17:24;11.60;99.90
75091;DHT22;63674;48.048;8.306;2024-03-29T17:19:51;11.40;99.90
75091;DHT22;63674;48.048;8.306;2024-03-29T17:22:20;11.40;99.90
75091;DHT22;63674;48.048;8.306;2024-03-29T17:24:52;11.20;99.90
75091;DHT22;63674;48.048;8.306;2024-03-29T17:29:48;10.90;99.90
75091;DHT22;63674;48.048;8.306;2024-03-29T17:32:14;10.80;99.90
75091;DHT22;63674;48.048;8.306;2024-03-29T17:34:42;10.70;99.90
75091;DHT22;63674;48.048;8.306;2024-03-29T17:37:08;10.60;99.90
75091;DHT22;63674;48.048;8.306;2024-03-29T17:39:34;10.50;99.90
75091;DHT22;63674;48.048;8.306;2024-03-29T17:42:00;10.30;99.90
75091;DHT22;63674;48.048;8.306;2024-03-29T17:44:28;10.20;99.90
75091;DHT22;63674;48.048;8.306;2024-03-29T17:46:54;10.10;99.90
75091;DHT22;63674;48.048;8.306;2024-03-29T17:49:20;10.00;99.90
75091;DHT22;63674;48.048;8.306;2024-03-29T17:51:46;9.90;99.90
75091;DHT22;63674;48.048;8.306;2024-03-29T17:54:13;9.90;99.90
75091;DHT22;63674;48.048;8.306;2024-03-29T17:56:42;9.70;99.90
75091;DHT22;63674;48.048;8.306;2024-03-29T17:59:08;9.60;99.90
75091;DHT22;63674;48.048;8.306;2024-03-29T18:01:34;9.50;99.90
75091;DHT22;63674;48.048;8.306;2024-03-29T18:04:02;9.40;99.90
75091;DHT22;63674;48.048;8.306;2024-03-29T18:06:29;9.30;99.90
75091;DHT22;63674;48.048;8.306;2024-03-29T18:08:56;9.30;99.90
75091;DHT22;63674;48.048;8.306;2024-03-29T18:11:22;9.10;99.90
75091;DHT22;63674;48.048;8.306;2024-03-29T18:13:48;9.00;99.90
75091;DHT22;63674;48.048;8.306;2024-03-29T18:16:15;8.90;99.90
75091;DHT22;63674;48.048;8.306;2024-03-29T18:18:46;8.80;99.90
75091;DHT22;63674;48.048;8.306;2024-03-29T18:21:13;8.70;99.90
75091;DHT22;63674;48.048;8.306;2024-03-29T18:26:06;8.70;99.90
75091;DHT22;63674;48.048;8.306;2024-03-29T18:28:32;8.60;99.90
75091;DHT22;63674;48.048;8.306;2024-03-29T18:30:59;8.40;99.90
75091;DHT22;63674;48.048;8.306;2024-03-29T18:33:27;8.30;99.90
75091;DHT22;63674;48.048;8.306;2024-03-29T18:35:54;8.30;99.90
75091;DHT22;63674;48.048;8.306;2024-03-29T18:38:24;8.20;99.90
75091;DHT22;63674;48.048;8.306;2024-03-29T18:40:51;8.20;99.90
75091;DHT22;63674;48.048;8.306;2024-03-29T18:43:18;7.90;99.90
75091;DHT22;63674;48.048;8.306;2024-03-29T18:45:44;7.90;99.90
75091;DHT22;63674;48.048;8.306;2024-03-29T18:50:37;7.80;99.90